Time;durP1;ratioP1;P1;durP2;ratioP2;P2;SDS_P1;SDS_P2;PMS_P1;PMS_P2;Temp;Humidity;BMP_temperature;BMP_pressure;BME280_temperature;BME280_humidity;BME280_pressure;Samples;Min_cycle;Max_cycle;Signal;HPM_P1;HPM_P2
2021/09/05 00:02:20;;;;;;;8.57;6.40;;;20.50;98.50;;;;;;4994170;28;20227;-70
2021/09/05 00:04:46;;;;;;;9.60;7.53;;;20.50;98.60;;;;;;5003632;28;20761;-71
2021/09/05 00:07:12;;;;;;;10.90;7.20;;;20.50;98.60;;;;;;4995815;28;20687;-71
2021/09/05 00:09:38;;;;;;;7.83;6.63;;;20.50;98.70;;;;;;4988024;28;20313;-70
2021/09/05 00:12:05;;;;;;;8.50;6.80;;;20.50;98.60;;;;;;4967387;28;20271;-71
2021/09/05 00:14:31;;;;;;;7.73;6.93;;;20.50;98.60;;;;;;4987922;28;20222;-71
2021/09/05 00:16:57;;;;;;;10.07;7.17;;;20.40;98.50;;;;;;5003554;28;20560;-71
2021/09/05 00:19:22;;;;;;;8.50;6.93;;;20.40;98.50;;;;;;5006363;28;20523;-70
2021/09/05 00:21:48;;;;;;;11.13;8.63;;;20.30;98.50;;;;;;4981500;28;20217;-71
2021/09/05 00:24:14;;;;;;;9.50;6.70;;;20.30;98.60;;;;;;5005670;28;20248;-71
2021/09/05 00:26:39;;;;;;;7.50;6.40;;;20.30;98.70;;;;;;5005410;28;20705;-71
2021/09/05 00:29:05;;;;;;;11.40;7.00;;;20.30;98.60;;;;;;4987015;28;20256;-71
2021/09/05 00:31:31;;;;;;;8.13;6.77;;;20.30;98.60;;;;;;5005317;28;20228;-70
2021/09/05 00:33:58;;;;;;;8.70;7.10;;;20.20;98.60;;;;;;4990939;28;20312;-70
2021/09/05 00:36:24;;;;;;;8.40;7.43;;;20.20;98.70;;;;;;4993610;28;20260;-71
2021/09/05 00:38:50;;;;;;;9.03;7.30;;;20.10;98.80;;;;;;5013195;28;20486;-71
2021/09/05 00:41:16;;;;;;;9.40;7.47;;;20.10;98.70;;;;;;5012239;28;20511;-71
2021/09/05 00:44:03;;;;;;;8.97;7.33;;;20.20;98.90;;;;;;5012205;28;20685;-70
2021/09/05 00:46:31;;;;;;;10.07;6.73;;;20.10;98.70;;;;;;5012609;28;20278;-70
2021/09/05 00:48:57;;;;;;;8.70;7.03;;;20.10;98.80;;;;;;4996733;28;20899;-71
2021/09/05 00:51:29;;;;;;;7.20;6.50;;;20.10;98.90;;;;;;5008261;28;20519;-70
2021/09/05 00:54:00;;;;;;;7.90;7.10;;;19.90;99.00;;;;;;5007147;28;20547;-71
2021/09/05 00:56:27;;;;;;;9.20;7.33;;;19.90;99.20;;;;;;5004717;28;20977;-70
2021/09/05 00:58:55;;;;;;;8.83;6.80;;;19.90;99.10;;;;;;4995671;28;20456;-70
2021/09/05 01:01:23;;;;;;;8.80;6.90;;;20.00;99.10;;;;;;4992115;28;20460;-70
2021/09/05 01:03:49;;;;;;;8.80;6.80;;;19.90;99.00;;;;;;4989290;28;20476;-71
2021/09/05 01:06:15;;;;;;;8.03;6.97;;;19.90;99.00;;;;;;4990123;28;20484;-70
2021/09/05 01:08:41;;;;;;;9.40;7.27;;;19.90;99.00;;;;;;4991836;28;20452;-70
2021/09/05 01:11:07;;;;;;;8.20;6.57;;;19.90;99.00;;;;;;5007643;28;20487;-71
2021/09/05 01:13:34;;;;;;;8.90;7.30;;;19.90;99.00;;;;;;4992053;28;20460;-71
2021/09/05 01:16:01;;;;;;;8.70;6.80;;;19.90;98.90;;;;;;5004351;28;20464;-71
2021/09/05 01:18:35;;;;;;;7.23;6.53;;;19.90;99.10;;;;;;5008114;28;20543;-70
2021/09/05 01:21:26;;;;;;;8.97;7.17;;;19.80;99.00;;;;;;5004212;28;20989;-70
2021/09/05 01:24:23;;;;;;;7.77;6.60;;;19.80;99.10;;;;;;4998294;28;20469;-71
2021/09/05 01:27:07;;;;;;;8.20;7.10;;;19.80;99.10;;;;;;5016453;28;20483;-70
2021/09/05 01:29:59;;;;;;;8.53;7.63;;;19.80;99.10;;;;;;4983764;28;20828;-71
2021/09/05 01:32:56;;;;;;;12.73;7.57;;;19.80;99.20;;;;;;5007697;28;20522;-70
2021/09/05 01:36:00;;;;;;;7.33;6.37;;;19.70;99.20;;;;;;4941733;28;20473;-71
2021/09/05 01:38:55;;;;;;;7.30;6.17;;;19.70;99.20;;;;;;4926075;29;20474;-71
2021/09/05 01:41:42;;;;;;;8.07;6.27;;;19.70;99.30;;;;;;4978640;28;20456;-71
2021/09/05 01:44:15;;;;;;;8.30;6.50;;;19.70;99.30;;;;;;5004133;28;20525;-71
2021/09/05 01:46:59;;;;;;;10.07;7.50;;;19.70;99.30;;;;;;5005193;28;20518;-70
2021/09/05 01:49:43;;;;;;;9.90;7.07;;;19.60;99.70;;;;;;5020868;28;20487;-70
2021/09/05 01:52:27;;;;;;;11.60;7.10;;;19.60;99.30;;;;;;5007085;28;20539;-71
2021/09/05 01:55:18;;;;;;;8.13;7.00;;;19.60;99.30;;;;;;4996396;28;20509;-71
2021/09/05 01:58:04;;;;;;;8.57;6.93;;;19.60;99.40;;;;;;5025800;28;20847;-71
2021/09/05 02:00:48;;;;;;;9.70;7.47;;;19.60;99.50;;;;;;4993765;28;21029;-70
2021/09/05 02:03:23;;;;;;;8.33;6.53;;;19.50;99.40;;;;;;4992349;28;21012;-70
2021/09/05 02:05:58;;;;;;;9.37;6.87;;;19.50;99.40;;;;;;4987791;28;20464;-71
2021/09/05 02:08:42;;;;;;;10.13;7.40;;;19.50;99.50;;;;;;5002503;28;20553;-71
2021/09/05 02:11:45;;;;;;;8.73;6.53;;;19.50;99.50;;;;;;4976401;28;20464;-71
2021/09/05 02:14:31;;;;;;;8.80;6.40;;;19.40;99.40;;;;;;4984814;28;20493;-71
2021/09/05 02:17:15;;;;;;;12.20;6.77;;;19.40;99.50;;;;;;5007512;28;20478;-71
2021/09/05 02:19:53;;;;;;;8.17;6.90;;;19.40;99.50;;;;;;4986309;28;20496;-71
2021/09/05 02:22:40;;;;;;;8.50;6.87;;;19.40;99.60;;;;;;5007773;28;20459;-71
2021/09/05 02:25:32;;;;;;;10.43;7.27;;;19.40;99.60;;;;;;4968621;28;20496;-70
2021/09/05 02:28:12;;;;;;;10.20;7.37;;;19.30;99.60;;;;;;5006893;28;20448;-70
2021/09/05 02:31:10;;;;;;;11.40;7.00;;;19.30;99.60;;;;;;4978270;28;20454;-71
2021/09/05 02:33:54;;;;;;;8.03;7.20;;;19.30;99.70;;;;;;5005842;28;20495;-71
2021/09/05 02:36:37;;;;;;;7.77;6.77;;;19.20;99.70;;;;;;4993492;28;20464;-71
2021/09/05 02:39:24;;;;;;;7.00;6.30;;;19.20;99.70;;;;;;4994536;28;20538;-70
2021/09/05 02:42:21;;;;;;;10.43;7.37;;;19.20;99.70;;;;;;4989156;28;20475;-70
2021/09/05 02:45:25;;;;;;;8.10;6.83;;;19.10;99.70;;;;;;4928313;29;21046;-70
2021/09/05 02:48:26;;;;;;;7.77;6.73;;;19.00;99.80;;;;;;4900784;29;20454;-70
2021/09/05 02:51:12;;;;;;;10.17;6.93;;;19.10;99.90;;;;;;4967097;28;20448;-70
2021/09/05 02:54:07;;;;;;;8.70;7.33;;;19.00;99.80;;;;;;4988439;28;20447;-71
2021/09/05 02:56:52;;;;;;;8.23;6.50;;;19.00;99.80;;;;;;5002852;28;20545;-70
2021/09/05 02:59:40;;;;;;;9.30;5.97;;;19.00;99.90;;;;;;4987278;28;20457;-71
2021/09/05 03:02:32;;;;;;;7.67;6.50;;;19.00;99.80;;;;;;5006438;28;20544;-71
2021/09/05 03:05:18;;;;;;;8.73;6.93;;;19.00;99.80;;;;;;4985958;28;20831;-71
2021/09/05 03:08:16;;;;;;;10.73;7.93;;;18.90;99.80;;;;;;4962921;28;20455;-70
2021/09/05 03:11:15;;;;;;;14.20;6.27;;;18.90;99.80;;;;;;4980621;28;20453;-70
2021/09/05 03:14:07;;;;;;;10.90;7.60;;;18.90;99.80;;;;;;4974795;28;20988;-71
2021/09/05 03:16:51;;;;;;;9.60;6.60;;;18.90;99.90;;;;;;5005232;28;20456;-71
2021/09/05 03:19:46;;;;;;;8.20;7.00;;;18.80;99.80;;;;;;4984379;28;20452;-71
2021/09/05 03:22:37;;;;;;;6.93;6.27;;;18.80;99.80;;;;;;5010403;28;20639;-70
2021/09/05 03:25:17;;;;;;;6.10;5.53;;;18.80;99.90;;;;;;5002898;28;20514;-71
2021/09/05 03:28:16;;;;;;;9.10;7.13;;;18.80;99.90;;;;;;5005693;28;20984;-70
2021/09/05 03:31:10;;;;;;;7.87;6.50;;;18.70;99.90;;;;;;4940162;28;20455;-71
2021/09/05 03:34:03;;;;;;;8.10;6.97;;;18.70;99.90;;;;;;4991267;28;20483;-71
2021/09/05 03:36:28;;;;;;;8.47;7.53;;;18.70;99.90;;;;;;5005576;28;20534;-70
2021/09/05 03:39:06;;;;;;;7.07;6.03;;;18.70;99.90;;;;;;4989202;28;20320;-70
2021/09/05 03:42:04;;;;;;;7.33;6.13;;;18.60;99.90;;;;;;4982497;28;20614;-71
2021/09/05 03:44:50;;;;;;;7.90;6.10;;;18.60;99.90;;;;;;4998138;28;21003;-70
2021/09/05 03:47:48;;;;;;;7.83;5.87;;;18.60;99.90;;;;;;4984965;28;20513;-71
2021/09/05 03:50:33;;;;;;;9.13;7.00;;;18.60;99.90;;;;;;4990379;28;20982;-70
2021/09/05 03:53:00;;;;;;;9.80;6.70;;;18.50;99.90;;;;;;4987010;28;20475;-71
2021/09/05 03:55:26;;;;;;;6.80;6.03;;;18.50;99.90;;;;;;4993723;28;20966;-71
2021/09/05 03:57:54;;;;;;;7.70;6.30;;;18.50;99.90;;;;;;5002337;28;20479;-71
2021/09/05 04:00:20;;;;;;;8.87;6.90;;;18.40;99.90;;;;;;4989058;28;20459;-70
2021/09/05 04:02:46;;;;;;;7.67;6.53;;;18.40;99.90;;;;;;4990587;28;20226;-71
2021/09/05 04:05:14;;;;;;;7.77;6.20;;;18.40;99.90;;;;;;4999728;28;20224;-71
2021/09/05 04:07:49;;;;;;;7.33;6.50;;;18.40;99.90;;;;;;4990696;28;20459;-70
2021/09/05 04:10:15;;;;;;;7.00;6.20;;;18.30;99.90;;;;;;5019468;28;20254;-70
2021/09/05 04:12:43;;;;;;;8.37;7.30;;;18.30;99.90;;;;;;5008825;28;20468;-70
2021/09/05 04:15:10;;;;;;;9.73;6.73;;;18.30;99.90;;;;;;4989639;28;20220;-71
2021/09/05 04:17:36;;;;;;;8.83;6.70;;;18.30;99.90;;;;;;4993339;28;20471;-71
2021/09/05 04:20:03;;;;;;;9.57;7.33;;;18.30;99.90;;;;;;5013223;28;20455;-71
2021/09/05 04:22:29;;;;;;;8.67;7.27;;;18.20;99.90;;;;;;4994896;28;20892;-70
2021/09/05 04:24:55;;;;;;;11.10;7.03;;;18.20;99.90;;;;;;5008417;28;20475;-71
2021/09/05 04:27:20;;;;;;;7.40;6.60;;;18.20;99.90;;;;;;5008127;28;20229;-70
2021/09/05 04:29:46;;;;;;;9.37;6.97;;;18.20;99.90;;;;;;4991279;28;20468;-72
2021/09/05 04:32:12;;;;;;;8.33;6.67;;;18.20;99.90;;;;;;5008941;28;20316;-70
2021/09/05 04:34:37;;;;;;;9.03;6.83;;;18.20;99.90;;;;;;4993152;28;20217;-70
2021/09/05 04:37:03;;;;;;;9.50;6.90;;;18.10;99.90;;;;;;5006906;28;20691;-70
2021/09/05 04:39:29;;;;;;;11.67;6.37;;;18.10;99.90;;;;;;5009258;28;20769;-70
2021/09/05 04:41:55;;;;;;;8.93;7.30;;;18.10;99.90;;;;;;4989757;28;20213;-70
2021/09/05 04:44:21;;;;;;;7.67;6.50;;;18.00;99.90;;;;;;4994635;28;20225;-70
2021/09/05 04:46:47;;;;;;;8.57;6.07;;;18.00;99.90;;;;;;5010560;28;20899;-71
2021/09/05 04:49:13;;;;;;;10.47;6.73;;;18.00;99.90;;;;;;5019544;28;20221;-70
2021/09/05 04:51:38;;;;;;;8.83;7.20;;;17.90;99.90;;;;;;5008730;28;20232;-70
2021/09/05 04:54:04;;;;;;;9.30;6.70;;;17.90;99.90;;;;;;4990950;28;20274;-71
2021/09/05 04:56:30;;;;;;;8.60;6.73;;;17.90;99.90;;;;;;5021760;28;20220;-70
2021/09/05 04:58:55;;;;;;;12.77;8.50;;;17.90;99.90;;;;;;4994815;28;20304;-71
2021/09/05 05:01:21;;;;;;;14.73;6.67;;;17.90;99.90;;;;;;4991466;28;20210;-70
2021/09/05 05:03:47;;;;;;;12.97;8.10;;;17.90;99.90;;;;;;4990277;28;20228;-70
2021/09/05 05:06:12;;;;;;;12.70;6.80;;;17.80;99.90;;;;;;5009018;28;20217;-70
2021/09/05 05:08:38;;;;;;;8.30;6.70;;;17.80;99.90;;;;;;5008367;28;20213;-71
2021/09/05 05:11:04;;;;;;;8.13;6.57;;;17.80;99.90;;;;;;5006507;28;20217;-70
2021/09/05 05:13:30;;;;;;;7.93;6.63;;;17.80;99.90;;;;;;4991679;28;20687;-71
2021/09/05 05:15:55;;;;;;;10.03;6.90;;;17.80;99.90;;;;;;5006336;28;20455;-71
2021/09/05 05:18:23;;;;;;;9.13;7.00;;;17.80;99.90;;;;;;5008392;28;20296;-70
2021/09/05 05:20:49;;;;;;;7.20;6.50;;;17.70;99.90;;;;;;4994500;28;20690;-71
2021/09/05 05:23:15;;;;;;;8.20;6.30;;;17.70;99.90;;;;;;5011340;28;20553;-70
2021/09/05 05:25:41;;;;;;;10.03;7.00;;;17.70;99.90;;;;;;4992199;28;20229;-70
2021/09/05 05:28:07;;;;;;;8.30;6.93;;;17.70;99.90;;;;;;4989443;28;20444;-71
2021/09/05 05:30:32;;;;;;;7.13;5.90;;;17.70;99.90;;;;;;4992266;28;20251;-69
2021/09/05 05:32:58;;;;;;;11.57;7.53;;;17.60;99.90;;;;;;4989465;28;20223;-71
2021/09/05 05:35:27;;;;;;;9.00;6.90;;;17.60;99.90;;;;;;4990739;28;20711;-68
2021/09/05 05:37:53;;;;;;;9.83;8.37;;;17.60;99.90;;;;;;4989686;28;20448;-71
2021/09/05 05:40:22;;;;;;;9.77;7.40;;;17.60;99.90;;;;;;5015136;28;20481;-71
2021/09/05 05:42:49;;;;;;;7.70;6.70;;;17.60;99.90;;;;;;5006769;28;20228;-70
2021/09/05 05:45:18;;;;;;;7.80;6.37;;;17.60;99.90;;;;;;4991948;28;20468;-70
2021/09/05 05:47:44;;;;;;;9.30;6.80;;;17.60;99.90;;;;;;4991861;28;20463;-70
2021/09/05 05:50:10;;;;;;;11.17;7.70;;;17.60;99.90;;;;;;5005813;28;20543;-70
2021/09/05 05:52:37;;;;;;;10.23;7.30;;;17.60;99.90;;;;;;5007482;28;20596;-70
2021/09/05 05:55:03;;;;;;;9.90;7.73;;;17.60;99.90;;;;;;4990862;28;20232;-70
2021/09/05 05:57:29;;;;;;;7.30;5.93;;;17.60;99.90;;;;;;5011379;28;20512;-70
2021/09/05 05:59:55;;;;;;;8.03;7.10;;;17.60;99.90;;;;;;4992196;28;20449;-71
2021/09/05 06:02:20;;;;;;;8.23;6.70;;;17.60;99.90;;;;;;5007003;28;20221;-70
2021/09/05 06:04:46;;;;;;;7.37;6.53;;;17.60;99.90;;;;;;5005845;28;20280;-71
2021/09/05 06:07:12;;;;;;;9.03;7.27;;;17.60;99.90;;;;;;4991059;28;20244;-70
2021/09/05 06:09:41;;;;;;;10.13;6.33;;;17.60;99.90;;;;;;4991381;28;20228;-70
2021/09/05 06:12:08;;;;;;;10.70;7.60;;;17.60;99.90;;;;;;4989021;28;20232;-71
2021/09/05 06:14:34;;;;;;;10.17;6.77;;;17.60;99.90;;;;;;4990256;28;20461;-71
2021/09/05 06:17:00;;;;;;;11.33;7.43;;;17.60;99.90;;;;;;4988909;28;20468;-70
2021/09/05 06:19:26;;;;;;;10.20;7.90;;;17.70;99.90;;;;;;5011318;28;20467;-71
2021/09/05 06:21:51;;;;;;;10.17;7.93;;;17.70;99.90;;;;;;5011259;28;20223;-71
2021/09/05 06:24:17;;;;;;;9.97;7.70;;;17.70;99.90;;;;;;5019769;28;20726;-71
2021/09/05 06:26:43;;;;;;;7.90;7.00;;;17.70;99.90;;;;;;5028217;28;20247;-70
2021/09/05 06:29:08;;;;;;;8.70;7.30;;;17.70;99.90;;;;;;5006791;28;20225;-71
2021/09/05 06:31:34;;;;;;;9.60;7.50;;;17.70;99.90;;;;;;4989987;28;20623;-70
2021/09/05 06:34:00;;;;;;;8.03;7.20;;;17.70;99.90;;;;;;4988381;28;20308;-71
2021/09/05 06:36:25;;;;;;;9.10;7.33;;;17.70;99.90;;;;;;5007102;28;20213;-70
2021/09/05 06:38:51;;;;;;;8.20;6.73;;;17.80;99.90;;;;;;5004994;28;20748;-71
2021/09/05 06:41:17;;;;;;;8.20;7.30;;;17.80;99.90;;;;;;5005735;28;20295;-71
2021/09/05 06:43:42;;;;;;;10.00;7.20;;;17.80;99.90;;;;;;4988657;28;20283;-70
2021/09/05 06:46:08;;;;;;;11.70;8.80;;;17.90;99.90;;;;;;5021032;28;20224;-70
2021/09/05 06:48:34;;;;;;;7.90;6.80;;;17.90;99.90;;;;;;5009479;28;20232;-70
2021/09/05 06:51:00;;;;;;;14.27;8.60;;;17.90;99.90;;;;;;4991490;28;20221;-70
2021/09/05 06:53:25;;;;;;;10.03;8.20;;;18.00;99.90;;;;;;4989613;28;20295;-71
2021/09/05 06:55:51;;;;;;;11.10;8.40;;;18.00;99.90;;;;;;4987911;28;20643;-71
2021/09/05 06:58:17;;;;;;;14.27;8.27;;;18.00;99.90;;;;;;4989761;28;20231;-70
2021/09/05 07:00:42;;;;;;;16.47;9.50;;;18.10;99.90;;;;;;5006138;28;20232;-70
2021/09/05 07:03:08;;;;;;;11.57;7.57;;;18.10;99.90;;;;;;4985064;28;20275;-70
2021/09/05 07:05:34;;;;;;;10.70;7.90;;;18.20;99.90;;;;;;4990049;28;20209;-71
2021/09/05 07:08:00;;;;;;;13.10;7.73;;;18.20;99.90;;;;;;5004881;28;20722;-71
2021/09/05 07:10:26;;;;;;;11.73;8.10;;;18.30;99.90;;;;;;4990428;28;20213;-68
2021/09/05 07:12:51;;;;;;;10.17;8.37;;;18.40;99.90;;;;;;5003259;28;20217;-68
2021/09/05 07:15:17;;;;;;;11.87;8.20;;;18.40;99.90;;;;;;4989793;28;20225;-68
2021/09/05 07:17:43;;;;;;;10.37;7.80;;;18.40;99.90;;;;;;5007524;28;20213;-67
2021/09/05 07:20:09;;;;;;;10.73;8.07;;;18.50;99.90;;;;;;4984426;28;20583;-68
2021/09/05 07:22:35;;;;;;;13.67;9.50;;;18.50;99.90;;;;;;4990075;28;20217;-68
2021/09/05 07:25:02;;;;;;;13.90;8.50;;;18.60;99.90;;;;;;5020050;28;20483;-68
2021/09/05 07:27:29;;;;;;;12.03;8.40;;;18.70;99.90;;;;;;5005409;28;20209;-67
2021/09/05 07:29:54;;;;;;;11.00;7.10;;;18.80;99.90;;;;;;4988023;28;20469;-69
2021/09/05 07:32:20;;;;;;;11.13;8.40;;;18.90;99.90;;;;;;5003404;28;21096;-67
2021/09/05 07:34:46;;;;;;;10.50;8.00;;;18.90;99.90;;;;;;4997999;28;20742;-68
2021/09/05 07:37:13;;;;;;;10.43;7.90;;;19.00;99.90;;;;;;4986439;28;20236;-68
2021/09/05 07:39:38;;;;;;;9.93;7.97;;;19.00;99.90;;;;;;4989620;28;20221;-68
2021/09/05 07:42:04;;;;;;;13.00;9.37;;;19.10;99.90;;;;;;5003875;28;20483;-67
2021/09/05 07:44:30;;;;;;;10.30;7.73;;;19.20;99.90;;;;;;5012749;28;20228;-68
2021/09/05 07:46:55;;;;;;;12.83;9.10;;;19.30;99.90;;;;;;4991871;28;20221;-67
2021/09/05 07:49:21;;;;;;;14.13;9.90;;;19.40;99.90;;;;;;5005810;28;20213;-68
2021/09/05 07:51:47;;;;;;;9.90;7.67;;;19.40;99.90;;;;;;4992696;28;20248;-69
2021/09/05 07:54:13;;;;;;;11.50;8.13;;;19.40;99.90;;;;;;4988532;28;20228;-68
2021/09/05 07:56:39;;;;;;;10.17;8.50;;;19.50;99.90;;;;;;5009012;28;20267;-69
2021/09/05 07:59:05;;;;;;;12.97;8.33;;;19.60;99.90;;;;;;5004131;28;20472;-68
2021/09/05 08:01:30;;;;;;;10.53;8.37;;;19.70;99.90;;;;;;4988241;28;20690;-68
2021/09/05 08:03:56;;;;;;;11.60;9.07;;;19.80;99.90;;;;;;4986783;28;20221;-68
2021/09/05 08:06:23;;;;;;;11.27;8.00;;;19.80;99.90;;;;;;4987764;28;20217;-71
2021/09/05 08:08:49;;;;;;;12.90;9.33;;;19.90;99.90;;;;;;4987251;28;20214;-71
2021/09/05 08:11:14;;;;;;;16.80;9.00;;;19.90;99.90;;;;;;5004384;28;20467;-70
2021/09/05 08:13:40;;;;;;;11.10;8.70;;;20.00;99.90;;;;;;5004947;28;20245;-70
2021/09/05 08:16:06;;;;;;;17.70;8.27;;;20.10;99.90;;;;;;5003586;28;20221;-71
2021/09/05 08:18:35;;;;;;;14.07;9.73;;;20.20;99.90;;;;;;4989846;28;20761;-70
2021/09/05 08:21:02;;;;;;;12.07;8.37;;;20.30;99.90;;;;;;4986631;28;20228;-71
2021/09/05 08:23:27;;;;;;;12.60;8.57;;;20.40;99.90;;;;;;4990396;28;20481;-70
2021/09/05 08:25:53;;;;;;;16.20;10.87;;;20.40;99.90;;;;;;4986401;28;20468;-70
2021/09/05 08:28:19;;;;;;;11.50;8.73;;;20.50;99.90;;;;;;4988516;28;20225;-70
2021/09/05 08:30:45;;;;;;;13.93;9.27;;;20.60;99.90;;;;;;5004895;28;20282;-70
2021/09/05 08:33:11;;;;;;;14.40;10.00;;;20.60;99.90;;;;;;5003365;28;20213;-70
2021/09/05 08:35:37;;;;;;;12.27;9.13;;;20.70;99.90;;;;;;5005595;28;20213;-71
2021/09/05 08:38:03;;;;;;;13.00;9.47;;;20.80;99.90;;;;;;4986895;28;21000;-71
2021/09/05 08:40:29;;;;;;;14.37;10.00;;;20.90;99.90;;;;;;4991049;28;20456;-71
2021/09/05 08:42:55;;;;;;;13.63;10.13;;;20.90;99.90;;;;;;5004392;28;20248;-71
2021/09/05 08:45:21;;;;;;;11.03;8.93;;;21.00;99.90;;;;;;4989343;28;20976;-71
2021/09/05 08:47:47;;;;;;;12.97;9.00;;;21.10;99.90;;;;;;5000678;28;20350;-71
2021/09/05 08:50:13;;;;;;;14.70;8.73;;;21.20;99.90;;;;;;4996771;28;20217;-71
2021/09/05 08:52:39;;;;;;;13.17;8.93;;;21.30;99.90;;;;;;4986478;28;20229;-71
2021/09/05 08:55:06;;;;;;;13.97;9.33;;;21.40;99.90;;;;;;5009196;28;20456;-71
2021/09/05 08:57:32;;;;;;;19.20;10.63;;;21.50;99.90;;;;;;5000117;28;20228;-71
2021/09/05 08:59:57;;;;;;;14.20;9.97;;;21.60;99.90;;;;;;4990672;28;20551;-71
2021/09/05 09:02:23;;;;;;;13.67;9.97;;;21.70;99.90;;;;;;4990913;28;20552;-71
2021/09/05 09:04:53;;;;;;;11.17;9.23;;;21.80;99.90;;;;;;5006392;28;20224;-71
2021/09/05 09:07:19;;;;;;;12.83;9.27;;;21.90;99.90;;;;;;5006613;28;20225;-70
2021/09/05 09:09:59;;;;;;;12.17;9.50;;;22.00;99.90;;;;;;4985756;28;20470;-71
2021/09/05 09:12:40;;;;;;;15.23;9.70;;;22.10;99.90;;;;;;4983651;28;20236;-71
2021/09/05 09:15:24;;;;;;;11.80;9.70;;;22.30;99.90;;;;;;5010277;28;20436;-71
2021/09/05 09:18:02;;;;;;;15.43;10.30;;;22.40;99.90;;;;;;5000273;28;20448;-71
2021/09/05 09:20:37;;;;;;;12.93;9.27;;;22.30;99.90;;;;;;5004826;28;20489;-70
2021/09/05 09:23:13;;;;;;;13.80;10.23;;;22.40;99.90;;;;;;5004020;28;20510;-71
2021/09/05 09:25:50;;;;;;;13.43;10.30;;;22.40;99.90;;;;;;4999507;28;20881;-70
2021/09/05 09:28:29;;;;;;;12.27;9.07;;;22.60;99.90;;;;;;4989750;28;20542;-71
2021/09/05 09:31:00;;;;;;;15.93;11.00;;;22.70;99.90;;;;;;5002879;28;20455;-71
2021/09/05 09:33:28;;;;;;;13.73;9.60;;;22.70;99.90;;;;;;4989899;28;21031;-71
2021/09/05 09:35:56;;;;;;;13.93;8.43;;;22.80;99.90;;;;;;5004632;28;20452;-71
2021/09/05 09:38:23;;;;;;;13.50;8.80;;;22.80;99.90;;;;;;4989403;28;20448;-70
2021/09/05 09:40:49;;;;;;;11.83;9.20;;;22.90;99.90;;;;;;5004530;28;20547;-70
2021/09/05 09:43:22;;;;;;;12.40;10.27;;;23.00;99.90;;;;;;4986647;28;20468;-71
2021/09/05 09:45:50;;;;;;;11.53;9.57;;;23.10;99.90;;;;;;4985106;28;20465;-72
2021/09/05 09:48:26;;;;;;;12.57;8.47;;;23.20;99.90;;;;;;5006043;28;20463;-70
2021/09/05 09:51:01;;;;;;;11.63;9.10;;;23.30;99.90;;;;;;4988325;28;20882;-71
2021/09/05 09:53:28;;;;;;;11.97;9.63;;;23.40;99.90;;;;;;4989359;28;20988;-70
2021/09/05 09:55:57;;;;;;;16.13;10.10;;;23.50;99.90;;;;;;5010865;28;20462;-71
2021/09/05 09:58:23;;;;;;;14.60;10.03;;;23.50;99.90;;;;;;4993518;28;20456;-71
2021/09/05 10:00:50;;;;;;;10.70;8.70;;;23.60;99.90;;;;;;4985534;28;20474;-71
2021/09/05 10:03:16;;;;;;;13.27;10.47;;;23.70;99.90;;;;;;5004506;28;20220;-71
2021/09/05 10:05:42;;;;;;;12.70;8.90;;;23.80;99.90;;;;;;4988285;28;20532;-70
2021/09/05 10:08:10;;;;;;;11.80;9.03;;;23.70;99.90;;;;;;5001334;28;20217;-71
2021/09/05 10:10:36;;;;;;;15.93;8.80;;;23.80;99.90;;;;;;5006866;28;20467;-71
2021/09/05 10:13:03;;;;;;;14.00;9.10;;;23.80;99.90;;;;;;5004097;28;20510;-71
2021/09/05 10:15:29;;;;;;;11.33;9.10;;;23.90;99.90;;;;;;4991031;28;20603;-70
2021/09/05 10:17:56;;;;;;;11.27;9.03;;;24.00;99.90;;;;;;4987495;28;20479;-70
2021/09/05 10:20:24;;;;;;;12.87;9.13;;;24.10;99.90;;;;;;4988617;28;20983;-70
2021/09/05 10:22:50;;;;;;;10.43;8.57;;;24.20;99.90;;;;;;5016094;28;20461;-71
2021/09/05 10:25:17;;;;;;;9.47;8.37;;;24.30;99.90;;;;;;5005321;28;20467;-71
2021/09/05 10:27:48;;;;;;;10.17;8.10;;;24.40;99.90;;;;;;4988938;28;21077;-71
2021/09/05 10:30:16;;;;;;;12.20;8.80;;;24.50;99.90;;;;;;5002944;28;20517;-71
2021/09/05 10:32:54;;;;;;;10.63;9.37;;;24.50;99.90;;;;;;4984245;28;20887;-71
2021/09/05 10:35:26;;;;;;;10.20;8.83;;;24.60;99.90;;;;;;4986867;28;21064;-71
2021/09/05 10:38:20;;;;;;;9.80;8.47;;;24.70;99.90;;;;;;5003431;28;20850;-71
2021/09/05 10:41:01;;;;;;;12.50;9.37;;;24.80;99.90;;;;;;5005784;28;20463;-72
2021/09/05 10:43:48;;;;;;;11.47;8.97;;;24.90;99.90;;;;;;5000310;28;20475;-71
2021/09/05 10:46:23;;;;;;;10.17;8.00;;;25.00;99.90;;;;;;4981156;28;20978;-71
2021/09/05 10:48:55;;;;;;;11.20;8.90;;;25.20;99.90;;;;;;4992765;28;20455;-71
2021/09/05 10:51:27;;;;;;;9.50;8.50;;;25.40;99.90;;;;;;4998540;28;20451;-70
2021/09/05 10:53:59;;;;;;;10.70;9.60;;;25.60;99.90;;;;;;4982266;28;20470;-71
2021/09/05 10:56:31;;;;;;;12.30;9.03;;;25.70;99.60;;;;;;4985555;28;20472;-71
2021/09/05 10:59:08;;;;;;;8.97;7.67;;;25.70;99.80;;;;;;4988142;28;20460;-71
2021/09/05 11:01:41;;;;;;;10.60;8.30;;;25.90;99.60;;;;;;5006335;28;20597;-70
2021/09/05 11:04:13;;;;;;;9.30;8.40;;;25.80;99.30;;;;;;4988350;28;20471;-71
2021/09/05 11:06:43;;;;;;;10.73;7.90;;;26.00;98.80;;;;;;5005801;28;20460;-71
2021/09/05 11:09:18;;;;;;;8.73;7.77;;;25.90;98.60;;;;;;5004272;28;20447;-71
2021/09/05 11:12:15;;;;;;;8.80;8.10;;;26.00;98.90;;;;;;4990187;28;20546;-71
2021/09/05 11:14:48;;;;;;;11.90;8.33;;;26.10;98.40;;;;;;4986375;28;20456;-72
2021/09/05 11:17:19;;;;;;;11.50;7.93;;;26.20;98.30;;;;;;4989843;28;20821;-71
2021/09/05 11:19:50;;;;;;;10.80;7.63;;;26.30;98.50;;;;;;4989549;28;20459;-71
2021/09/05 11:22:45;;;;;;;10.10;8.00;;;26.40;98.50;;;;;;5006841;28;20466;-71
2021/09/05 11:25:24;;;;;;;8.70;7.30;;;26.40;98.90;;;;;;5006875;28;20475;-71
2021/09/05 11:28:01;;;;;;;10.80;8.50;;;26.40;98.40;;;;;;4988511;28;20529;-72
2021/09/05 11:30:31;;;;;;;9.10;7.97;;;26.40;98.40;;;;;;5005715;28;20546;-71
2021/09/05 11:33:00;;;;;;;10.97;9.10;;;26.50;98.30;;;;;;5004258;28;20889;-72
2021/09/05 11:35:27;;;;;;;9.67;8.60;;;26.60;98.10;;;;;;4988798;28;20459;-70
2021/09/05 11:37:56;;;;;;;8.97;7.40;;;26.60;98.30;;;;;;5004260;28;20455;-71
2021/09/05 11:40:23;;;;;;;8.97;7.73;;;26.80;97.80;;;;;;4988525;28;20484;-71
2021/09/05 11:42:51;;;;;;;9.60;7.00;;;26.90;97.70;;;;;;5003632;28;20535;-72
2021/09/05 11:45:22;;;;;;;7.70;6.90;;;26.90;97.40;;;;;;5006241;28;20471;-71
2021/09/05 11:48:01;;;;;;;8.33;7.50;;;26.90;97.30;;;;;;5002958;28;20493;-70
2021/09/05 11:50:28;;;;;;;8.10;7.30;;;26.90;97.30;;;;;;5005156;28;20502;-71
2021/09/05 11:52:56;;;;;;;9.77;8.53;;;27.00;97.10;;;;;;4986807;28;20474;-69
2021/09/05 11:55:24;;;;;;;8.23;7.30;;;27.00;96.80;;;;;;5007778;28;20451;-69
2021/09/05 11:58:02;;;;;;;8.53;7.20;;;27.00;96.90;;;;;;5023547;28;20530;-69
2021/09/05 12:00:31;;;;;;;7.95;7.15;;;27.10;97.10;;;;;;5009413;28;20462;-69
2021/09/05 12:02:58;;;;;;;8.37;7.53;;;27.30;96.70;;;;;;4990560;28;20217;-69
2021/09/05 12:05:26;;;;;;;8.67;7.60;;;27.40;96.80;;;;;;4989905;28;20479;-68
2021/09/05 12:07:52;;;;;;;7.83;6.87;;;27.50;96.50;;;;;;5003877;28;21032;-68
2021/09/05 12:10:23;;;;;;;9.45;7.72;;;27.70;95.80;;;;;;4988485;28;20614;-68
2021/09/05 12:13:12;;;;;;;8.00;7.20;;;27.80;95.20;;;;;;5003343;28;20217;-69
2021/09/05 12:15:46;;;;;;;7.47;6.78;;;28.00;95.70;;;;;;4989549;28;20213;-68
2021/09/05 12:18:27;;;;;;;7.20;6.50;;;28.00;95.10;;;;;;4988800;28;20227;-68
2021/09/05 12:20:59;;;;;;;7.68;6.88;;;28.10;95.10;;;;;;4987018;28;20220;-68
2021/09/05 12:23:31;;;;;;;10.83;8.80;;;28.10;95.70;;;;;;5005431;28;20700;-68
2021/09/05 12:26:01;;;;;;;7.40;6.50;;;27.90;93.70;;;;;;5003813;28;20255;-69
2021/09/05 12:28:33;;;;;;;7.63;5.45;;;27.80;94.10;;;;;;4990568;28;20267;-69
2021/09/05 12:31:03;;;;;;;7.72;6.53;;;27.70;94.60;;;;;;4991012;28;20220;-69
2021/09/05 12:33:37;;;;;;;8.18;6.15;;;27.90;94.80;;;;;;4990688;28;20212;-69
2021/09/05 12:36:06;;;;;;;6.60;6.00;;;28.00;94.90;;;;;;5002080;28;20224;-69
2021/09/05 12:38:35;;;;;;;8.83;6.90;;;28.00;93.40;;;;;;4990560;28;20766;-71
2021/09/05 12:41:13;;;;;;;6.65;5.93;;;28.00;93.60;;;;;;4990672;28;20456;-71
2021/09/05 12:43:50;;;;;;;7.38;6.60;;;28.10;94.20;;;;;;5008823;28;20234;-68
2021/09/05 12:46:19;;;;;;;7.30;6.60;;;28.10;93.90;;;;;;5007173;28;20238;-68
2021/09/05 12:48:47;;;;;;;7.13;6.43;;;27.90;94.00;;;;;;5009582;28;20223;-72
2021/09/05 12:51:18;;;;;;;7.13;5.93;;;27.80;94.00;;;;;;4991940;28;21010;-71
2021/09/05 12:53:55;;;;;;;8.35;5.70;;;27.90;94.00;;;;;;5008645;28;20279;-71
2021/09/05 12:56:23;;;;;;;8.98;6.95;;;28.10;94.20;;;;;;5003766;28;20583;-71
2021/09/05 12:58:49;;;;;;;6.70;6.05;;;28.20;93.80;;;;;;5009877;28;20295;-72
2021/09/05 13:01:26;;;;;;;6.47;5.85;;;28.20;92.50;;;;;;4999372;28;20231;-71
2021/09/05 13:03:52;;;;;;;7.95;5.38;;;28.10;93.50;;;;;;5005800;28;20227;-71
2021/09/05 13:06:21;;;;;;;6.32;5.72;;;28.20;92.80;;;;;;4990850;28;20264;-71